< Typhoon 201322 2013 Season Typhoon 201324 >
Typhoon 201323 (FITOW)
General InformationTrack Information on Google MapsDetailed Wind InformationForecast History on Google MapsAccess Analytics MapList of All Images || NewsDisaster Info.WeblogTrackbackTyphoon FrontTwiphoonTyphoon Now!Typhoon ImaginationDisaster Info. XMLResourceGoogle EarthGE AnimationAtom FeedGeoJSON
Detalied Best Track (Time Zone = UTC)
Year Month Day Hour Lat. Long. Pressure (hPa) Wind (kt) Class Image Chart
2013 9 29 06 10.3 135.0 1000 0 2 Image Chart
2013 9 29 12 10.4 134.3 1002 0 2 Image Chart
2013 9 29 18 10.8 133.8 1000 0 2 Image Chart
2013 9 30 00 11.8 133.3 1002 0 2 Image Chart
2013 9 30 06 12.7 133.0 1000 0 2 Image Chart
2013 9 30 12 13.4 132.6 1000 0 2 Image Chart
2013 9 30 18 13.8 132.2 996 35 3 Image Chart
2013 10 1 00 14.5 131.8 996 35 3 Image Chart
2013 10 1 06 15.2 131.5 994 35 3 Image Chart
2013 10 1 12 16.1 131.2 990 45 3 Image Chart
2013 10 1 18 17.2 131.1 990 45 3 Image Chart
2013 10 2 00 17.6 130.6 985 50 4 Image Chart
2013 10 2 06 18.3 130.2 985 50 4 Image Chart
2013 10 2 12 18.9 129.9 985 50 4 Image Chart
2013 10 2 18 19.5 129.8 985 50 4 Image Chart
2013 10 3 00 20.0 129.8 985 50 4 Image Chart
2013 10 3 06 20.7 129.6 980 55 4 Image Chart
2013 10 3 12 21.2 129.7 980 55 4 Image Chart
2013 10 3 18 21.6 129.9 975 60 4 Image Chart
2013 10 4 00 22.1 129.8 975 60 4 Image Chart
2013 10 4 06 22.7 129.5 975 60 4 Image Chart
2013 10 4 12 23.2 129.1 965 70 5 Image Chart
2013 10 4 18 23.7 128.5 960 75 5 Image Chart
2013 10 4 21 24.1 128.2 960 75 5 Image Chart
2013 10 5 00 24.4 127.6 960 75 5 Image Chart
2013 10 5 03 24.5 127.3 960 75 5 Image Chart
2013 10 5 06 24.7 126.7 960 75 5 Image Chart
2013 10 5 09 25.1 126.4 960 75 5 Image Chart
2013 10 5 12 25.0 125.8 960 75 5 Image Chart
2013 10 5 15 25.2 125.5 960 75 5 Image Chart
2013 10 5 18 25.2 124.9 960 75 5 Image Chart
2013 10 5 21 25.5 124.4 960 75 5 Image Chart
2013 10 6 00 25.6 123.7 965 70 5 Image Chart
2013 10 6 03 25.8 123.3 965 70 5 Image Chart
2013 10 6 06 26.0 122.8 965 70 5 Image Chart
2013 10 6 12 26.7 121.7 975 65 5 Image Chart
2013 10 6 18 27.0 120.2 975 60 4 Image Chart
2013 10 7 00 27.0 118.8 996 40 3 Image Chart
2013 10 7 06 26.9 117.9 1002 0 2 Image Chart
Japan Meteorological Agency Best Track Data | Correction Date : 2013-11-01
< Typhoon 201322 2013 Season Typhoon 201324 >

Help